Pagina principale
METAR-TAF:

METAR-TAF

Aeroporti :

Capo Mele

Andora, Italia

latitudine: 43-57N, longitudine: 008-10E, altezza: 220 m

Osservazione

Il bollettino è stato emesso 57 minuti fa, alle 02:55 UTC
Vento 4 kt da nord-ovest
Temperature 8°C
Umidità 87%
Pressione 1024 hPa
Visibilità: 0900 m
nebbia

METAR: LIMU 270255Z 32004KT 0900 FG NSC 08/06 Q1024 RMK SKC QUK / QUL / VIS MAR 900 M VIS MIN 0900

Ora: 04:52 (03:52 UTC)


TAF: mancante

Osservazioni e previsioni meteorologiche di più di 4000 aeroporti (messaggi METAR e TAF).

Le stazioni disponibili sono rappresentate dai dischi gialli e rossi sulla carta.

Puntare il mouse per vedere il nome della stazione.

Clicca sopra per visualizzare le osservazioni e previsioni meteorologiche.

Per cambiare la mappa : fare clic sui pulsanti verdi con una croce nera per ingrandire, il pulsante verde con un trattino per diminuire, o sulla freccia verde per le mappe adiacenti.


METAR-TAF: